sensor_id;sensor_type;location;lat;lon;timestamp;temperature;humidity
15241;DHT22;7723;52.170;9.978;2023-10-31T00:01:05;12.40;99.90
15241;DHT22;7723;52.170;9.978;2023-10-31T00:03:32;12.40;99.90
15241;DHT22;7723;52.170;9.978;2023-10-31T00:05:59;12.40;99.90
15241;DHT22;7723;52.170;9.978;2023-10-31T00:08:28;12.40;99.90
15241;DHT22;7723;52.170;9.978;2023-10-31T00:10:55;12.40;99.90
15241;DHT22;7723;52.170;9.978;2023-10-31T00:13:22;12.50;99.90
15241;DHT22;7723;52.170;9.978;2023-10-31T00:15:49;12.50;99.90
15241;DHT22;7723;52.170;9.978;2023-10-31T00:18:16;12.40;99.90
15241;DHT22;7723;52.170;9.978;2023-10-31T00:20:43;12.40;99.90
15241;DHT22;7723;52.170;9.978;2023-10-31T00:23:10;12.40;99.90
15241;DHT22;7723;52.170;9.978;2023-10-31T00:25:38;12.40;99.90
15241;DHT22;7723;52.170;9.978;2023-10-31T00:28:05;12.40;99.90
15241;DHT22;7723;52.170;9.978;2023-10-31T00:30:33;12.40;99.90
15241;DHT22;7723;52.170;9.978;2023-10-31T00:33:00;12.40;99.90
15241;DHT22;7723;52.170;9.978;2023-10-31T00:35:27;12.40;99.90
15241;DHT22;7723;52.170;9.978;2023-10-31T00:37:54;12.40;99.90
15241;DHT22;7723;52.170;9.978;2023-10-31T00:40:21;12.40;99.90
15241;DHT22;7723;52.170;9.978;2023-10-31T00:42:49;12.40;99.90
15241;DHT22;7723;52.170;9.978;2023-10-31T00:45:16;12.40;99.90
15241;DHT22;7723;52.170;9.978;2023-10-31T00:47:43;12.40;99.90
15241;DHT22;7723;52.170;9.978;2023-10-31T00:50:11;12.40;99.90
15241;DHT22;7723;52.170;9.978;2023-10-31T00:52:38;12.40;99.90
15241;DHT22;7723;52.170;9.978;2023-10-31T00:55:06;12.40;99.90
15241;DHT22;7723;52.170;9.978;2023-10-31T00:57:33;12.40;99.90
15241;DHT22;7723;52.170;9.978;2023-10-31T01:00:02;12.40;99.90
15241;DHT22;7723;52.170;9.978;2023-10-31T01:02:29;12.40;99.90
15241;DHT22;7723;52.170;9.978;2023-10-31T01:04:56;12.50;99.90
15241;DHT22;7723;52.170;9.978;2023-10-31T01:07:23;12.40;99.90
15241;DHT22;7723;52.170;9.978;2023-10-31T01:09:50;12.50;99.90
15241;DHT22;7723;52.170;9.978;2023-10-31T01:12:17;12.40;99.90
15241;DHT22;7723;52.170;9.978;2023-10-31T01:14:45;12.40;99.90
15241;DHT22;7723;52.170;9.978;2023-10-31T01:17:13;12.40;99.90
15241;DHT22;7723;52.170;9.978;2023-10-31T01:19:40;12.40;99.90
15241;DHT22;7723;52.170;9.978;2023-10-31T01:22:07;12.40;99.90
15241;DHT22;7723;52.170;9.978;2023-10-31T01:24:35;12.40;99.90
15241;DHT22;7723;52.170;9.978;2023-10-31T01:27:02;12.40;99.90
15241;DHT22;7723;52.170;9.978;2023-10-31T01:29:29;12.40;99.90
15241;DHT22;7723;52.170;9.978;2023-10-31T01:31:56;12.40;99.90
15241;DHT22;7723;52.170;9.978;2023-10-31T01:34:25;12.40;99.90
15241;DHT22;7723;52.170;9.978;2023-10-31T01:36:52;12.40;99.90
15241;DHT22;7723;52.170;9.978;2023-10-31T01:39:19;12.40;99.90
15241;DHT22;7723;52.170;9.978;2023-10-31T01:41:46;12.40;99.90
15241;DHT22;7723;52.170;9.978;2023-10-31T01:44:14;12.40;99.90
15241;DHT22;7723;52.170;9.978;2023-10-31T01:46:41;12.40;99.90
15241;DHT22;7723;52.170;9.978;2023-10-31T01:49:08;12.40;99.90
15241;DHT22;7723;52.170;9.978;2023-10-31T01:51:37;12.30;99.90
15241;DHT22;7723;52.170;9.978;2023-10-31T01:54:04;12.30;99.90
15241;DHT22;7723;52.170;9.978;2023-10-31T01:56:32;12.30;99.90
15241;DHT22;7723;52.170;9.978;2023-10-31T01:58:59;12.30;99.90
15241;DHT22;7723;52.170;9.978;2023-10-31T02:01:26;12.40;99.90
15241;DHT22;7723;52.170;9.978;2023-10-31T02:03:53;12.50;99.90
15241;DHT22;7723;52.170;9.978;2023-10-31T02:06:21;12.50;99.90
15241;DHT22;7723;52.170;9.978;2023-10-31T02:08:50;12.50;99.90
15241;DHT22;7723;52.170;9.978;2023-10-31T02:11:17;12.50;99.90
15241;DHT22;7723;52.170;9.978;2023-10-31T02:13:44;12.50;99.90
15241;DHT22;7723;52.170;9.978;2023-10-31T02:16:12;12.50;99.90
15241;DHT22;7723;52.170;9.978;2023-10-31T02:18:39;12.60;99.90
15241;DHT22;7723;52.170;9.978;2023-10-31T02:21:06;12.60;99.90
15241;DHT22;7723;52.170;9.978;2023-10-31T02:23:35;12.60;99.90
15241;DHT22;7723;52.170;9.978;2023-10-31T02:26:02;12.60;99.90
15241;DHT22;7723;52.170;9.978;2023-10-31T02:28:30;12.60;99.90
15241;DHT22;7723;52.170;9.978;2023-10-31T02:30:57;12.60;99.90
15241;DHT22;7723;52.170;9.978;2023-10-31T02:33:24;12.60;99.90
15241;DHT22;7723;52.170;9.978;2023-10-31T02:35:51;12.60;99.90
15241;DHT22;7723;52.170;9.978;2023-10-31T02:38:18;12.60;99.90
15241;DHT22;7723;52.170;9.978;2023-10-31T02:40:47;12.60;99.90
15241;DHT22;7723;52.170;9.978;2023-10-31T02:43:14;12.60;99.90
15241;DHT22;7723;52.170;9.978;2023-10-31T02:45:41;12.70;99.90
15241;DHT22;7723;52.170;9.978;2023-10-31T02:48:08;12.60;99.90
15241;DHT22;7723;52.170;9.978;2023-10-31T02:50:35;12.70;99.90
15241;DHT22;7723;52.170;9.978;2023-10-31T02:53:03;12.70;99.90
15241;DHT22;7723;52.170;9.978;2023-10-31T02:55:30;12.70;99.90
15241;DHT22;7723;52.170;9.978;2023-10-31T02:57:58;12.70;99.90
15241;DHT22;7723;52.170;9.978;2023-10-31T03:00:25;12.70;99.90
15241;DHT22;7723;52.170;9.978;2023-10-31T03:02:52;12.70;99.90
15241;DHT22;7723;52.170;9.978;2023-10-31T03:05:20;12.70;99.90
15241;DHT22;7723;52.170;9.978;2023-10-31T03:07:47;12.70;99.90
15241;DHT22;7723;52.170;9.978;2023-10-31T03:10:15;12.70;99.90
15241;DHT22;7723;52.170;9.978;2023-10-31T03:12:42;12.70;99.90
15241;DHT22;7723;52.170;9.978;2023-10-31T03:15:11;12.70;99.90
15241;DHT22;7723;52.170;9.978;2023-10-31T03:17:38;12.70;99.90
15241;DHT22;7723;52.170;9.978;2023-10-31T03:20:06;12.70;99.90
15241;DHT22;7723;52.170;9.978;2023-10-31T03:22:34;12.70;99.90
15241;DHT22;7723;52.170;9.978;2023-10-31T03:25:01;12.70;99.90
15241;DHT22;7723;52.170;9.978;2023-10-31T03:27:28;12.80;99.90
15241;DHT22;7723;52.170;9.978;2023-10-31T03:29:55;12.80;99.90
15241;DHT22;7723;52.170;9.978;2023-10-31T03:32:24;12.80;99.90
15241;DHT22;7723;52.170;9.978;2023-10-31T03:34:51;12.80;99.90
15241;DHT22;7723;52.170;9.978;2023-10-31T03:37:18;12.80;99.90
15241;DHT22;7723;52.170;9.978;2023-10-31T03:39:45;12.70;99.90
15241;DHT22;7723;52.170;9.978;2023-10-31T03:42:12;12.60;99.90
15241;DHT22;7723;52.170;9.978;2023-10-31T03:44:39;12.40;99.90
15241;DHT22;7723;52.170;9.978;2023-10-31T03:47:06;12.30;99.90
15241;DHT22;7723;52.170;9.978;2023-10-31T03:49:37;12.20;99.90
15241;DHT22;7723;52.170;9.978;2023-10-31T03:52:05;12.10;99.90
15241;DHT22;7723;52.170;9.978;2023-10-31T03:54:32;12.00;99.90
15241;DHT22;7723;52.170;9.978;2023-10-31T03:56:59;11.90;99.90
15241;DHT22;7723;52.170;9.978;2023-10-31T03:59:26;11.90;99.90
15241;DHT22;7723;52.170;9.978;2023-10-31T04:01:53;11.80;99.90
15241;DHT22;7723;52.170;9.978;2023-10-31T04:04:20;11.80;99.90
15241;DHT22;7723;52.170;9.978;2023-10-31T04:06:49;11.70;99.90
15241;DHT22;7723;52.170;9.978;2023-10-31T04:09:16;11.70;99.90
15241;DHT22;7723;52.170;9.978;2023-10-31T04:11:43;11.70;99.90
15241;DHT22;7723;52.170;9.978;2023-10-31T04:14:10;11.70;99.90
15241;DHT22;7723;52.170;9.978;2023-10-31T04:16:39;11.70;99.90
15241;DHT22;7723;52.170;9.978;2023-10-31T04:19:11;11.70;99.90
15241;DHT22;7723;52.170;9.978;2023-10-31T04:21:38;11.60;99.90
15241;DHT22;7723;52.170;9.978;2023-10-31T04:24:07;11.60;99.90
15241;DHT22;7723;52.170;9.978;2023-10-31T04:26:34;11.60;99.90
15241;DHT22;7723;52.170;9.978;2023-10-31T04:29:01;11.60;99.90
15241;DHT22;7723;52.170;9.978;2023-10-31T04:31:28;11.50;99.90
15241;DHT22;7723;52.170;9.978;2023-10-31T04:33:55;11.50;99.90
15241;DHT22;7723;52.170;9.978;2023-10-31T04:36:22;11.50;99.90
15241;DHT22;7723;52.170;9.978;2023-10-31T04:38:49;11.50;99.90
15241;DHT22;7723;52.170;9.978;2023-10-31T04:41:18;11.50;99.90
15241;DHT22;7723;52.170;9.978;2023-10-31T04:43:45;11.40;99.90
15241;DHT22;7723;52.170;9.978;2023-10-31T04:46:12;11.40;99.90
15241;DHT22;7723;52.170;9.978;2023-10-31T04:48:39;11.40;99.90
15241;DHT22;7723;52.170;9.978;2023-10-31T04:51:06;11.40;99.90
15241;DHT22;7723;52.170;9.978;2023-10-31T04:53:34;11.40;99.90
15241;DHT22;7723;52.170;9.978;2023-10-31T04:56:01;11.30;99.90
15241;DHT22;7723;52.170;9.978;2023-10-31T04:58:29;11.30;99.90
15241;DHT22;7723;52.170;9.978;2023-10-31T05:00:56;11.30;99.90
15241;DHT22;7723;52.170;9.978;2023-10-31T05:03:23;11.40;99.90
15241;DHT22;7723;52.170;9.978;2023-10-31T05:05:50;11.30;99.90
15241;DHT22;7723;52.170;9.978;2023-10-31T05:08:17;11.20;99.90
15241;DHT22;7723;52.170;9.978;2023-10-31T05:10:44;11.20;99.90
15241;DHT22;7723;52.170;9.978;2023-10-31T05:13:13;11.20;99.90
15241;DHT22;7723;52.170;9.978;2023-10-31T05:15:41;11.10;99.90
15241;DHT22;7723;52.170;9.978;2023-10-31T05:18:08;11.00;99.90
15241;DHT22;7723;52.170;9.978;2023-10-31T05:20:35;11.00;99.90
15241;DHT22;7723;52.170;9.978;2023-10-31T05:23:02;11.00;99.90
15241;DHT22;7723;52.170;9.978;2023-10-31T05:25:30;11.00;99.90
15241;DHT22;7723;52.170;9.978;2023-10-31T05:27:57;10.90;99.90
15241;DHT22;7723;52.170;9.978;2023-10-31T05:30:24;10.90;99.90
15241;DHT22;7723;52.170;9.978;2023-10-31T05:32:54;10.80;99.90
15241;DHT22;7723;52.170;9.978;2023-10-31T05:35:21;10.80;99.90
15241;DHT22;7723;52.170;9.978;2023-10-31T05:37:48;10.90;99.90
15241;DHT22;7723;52.170;9.978;2023-10-31T05:40:16;10.80;99.90
15241;DHT22;7723;52.170;9.978;2023-10-31T05:42:43;10.80;99.90
15241;DHT22;7723;52.170;9.978;2023-10-31T05:45:10;10.80;99.90
15241;DHT22;7723;52.170;9.978;2023-10-31T05:47:37;10.70;99.90
15241;DHT22;7723;52.170;9.978;2023-10-31T05:50:07;10.70;99.90
15241;DHT22;7723;52.170;9.978;2023-10-31T05:52:35;10.60;99.90
15241;DHT22;7723;52.170;9.978;2023-10-31T05:55:02;10.60;99.90
15241;DHT22;7723;52.170;9.978;2023-10-31T05:57:29;10.50;99.90
15241;DHT22;7723;52.170;9.978;2023-10-31T05:59:56;10.50;99.90
15241;DHT22;7723;52.170;9.978;2023-10-31T06:02:23;10.40;99.90
15241;DHT22;7723;52.170;9.978;2023-10-31T06:04:50;10.30;99.90
15241;DHT22;7723;52.170;9.978;2023-10-31T06:07:18;10.30;99.90
15241;DHT22;7723;52.170;9.978;2023-10-31T06:09:45;10.20;99.90
15241;DHT22;7723;52.170;9.978;2023-10-31T06:12:12;10.20;99.90
15241;DHT22;7723;52.170;9.978;2023-10-31T06:14:39;10.20;99.90
15241;DHT22;7723;52.170;9.978;2023-10-31T06:17:07;10.10;99.90
15241;DHT22;7723;52.170;9.978;2023-10-31T06:19:34;10.10;99.90
15241;DHT22;7723;52.170;9.978;2023-10-31T06:22:02;10.10;99.90
15241;DHT22;7723;52.170;9.978;2023-10-31T06:24:30;10.10;99.90
15241;DHT22;7723;52.170;9.978;2023-10-31T06:26:57;10.10;99.90
15241;DHT22;7723;52.170;9.978;2023-10-31T06:29:24;10.10;99.90
15241;DHT22;7723;52.170;9.978;2023-10-31T06:31:51;10.10;99.90
15241;DHT22;7723;52.170;9.978;2023-10-31T06:34:18;10.00;99.90
15241;DHT22;7723;52.170;9.978;2023-10-31T06:36:46;10.00;99.90
15241;DHT22;7723;52.170;9.978;2023-10-31T06:39:13;10.00;99.90
15241;DHT22;7723;52.170;9.978;2023-10-31T06:41:41;10.10;99.90
15241;DHT22;7723;52.170;9.978;2023-10-31T06:44:08;10.20;99.90
15241;DHT22;7723;52.170;9.978;2023-10-31T06:46:36;10.20;99.90
15241;DHT22;7723;52.170;9.978;2023-10-31T06:49:03;10.20;99.90
15241;DHT22;7723;52.170;9.978;2023-10-31T06:51:30;10.20;99.90
15241;DHT22;7723;52.170;9.978;2023-10-31T06:53:57;10.20;99.90
15241;DHT22;7723;52.170;9.978;2023-10-31T06:56:24;10.30;99.90
15241;DHT22;7723;52.170;9.978;2023-10-31T06:58:55;10.40;99.90
15241;DHT22;7723;52.170;9.978;2023-10-31T07:01:23;10.40;99.90
15241;DHT22;7723;52.170;9.978;2023-10-31T07:03:50;10.50;99.90
15241;DHT22;7723;52.170;9.978;2023-10-31T07:06:17;10.50;99.90
15241;DHT22;7723;52.170;9.978;2023-10-31T07:08:44;10.50;99.90
15241;DHT22;7723;52.170;9.978;2023-10-31T07:11:11;10.60;99.90
15241;DHT22;7723;52.170;9.978;2023-10-31T07:13:38;10.70;99.90
15241;DHT22;7723;52.170;9.978;2023-10-31T07:16:07;10.70;99.90
15241;DHT22;7723;52.170;9.978;2023-10-31T07:18:34;10.80;99.90
15241;DHT22;7723;52.170;9.978;2023-10-31T07:21:03;10.80;99.90
15241;DHT22;7723;52.170;9.978;2023-10-31T07:23:30;10.90;99.90
15241;DHT22;7723;52.170;9.978;2023-10-31T07:25:57;10.90;99.90
15241;DHT22;7723;52.170;9.978;2023-10-31T07:28:24;10.90;99.90
15241;DHT22;7723;52.170;9.978;2023-10-31T07:30:51;10.90;99.90
15241;DHT22;7723;52.170;9.978;2023-10-31T07:33:20;10.90;99.90
15241;DHT22;7723;52.170;9.978;2023-10-31T07:35:47;10.90;99.90
15241;DHT22;7723;52.170;9.978;2023-10-31T07:38:14;10.90;99.90
15241;DHT22;7723;52.170;9.978;2023-10-31T07:40:41;11.00;99.90
15241;DHT22;7723;52.170;9.978;2023-10-31T07:43:08;11.10;99.90
15241;DHT22;7723;52.170;9.978;2023-10-31T07:45:35;11.10;99.90
15241;DHT22;7723;52.170;9.978;2023-10-31T07:48:03;11.10;99.90
15241;DHT22;7723;52.170;9.978;2023-10-31T07:50:31;11.10;99.90
15241;DHT22;7723;52.170;9.978;2023-10-31T07:52:58;11.20;99.90
15241;DHT22;7723;52.170;9.978;2023-10-31T07:55:25;11.20;99.90
15241;DHT22;7723;52.170;9.978;2023-10-31T07:57:52;11.20;99.90
15241;DHT22;7723;52.170;9.978;2023-10-31T08:00:20;11.20;99.90
15241;DHT22;7723;52.170;9.978;2023-10-31T08:02:48;11.20;99.90
15241;DHT22;7723;52.170;9.978;2023-10-31T08:05:15;11.20;99.90
15241;DHT22;7723;52.170;9.978;2023-10-31T08:07:43;11.20;99.90
15241;DHT22;7723;52.170;9.978;2023-10-31T08:10:11;11.20;99.90
15241;DHT22;7723;52.170;9.978;2023-10-31T08:12:38;11.20;99.90
15241;DHT22;7723;52.170;9.978;2023-10-31T08:15:06;11.20;99.90
15241;DHT22;7723;52.170;9.978;2023-10-31T08:17:34;11.30;99.90
15241;DHT22;7723;52.170;9.978;2023-10-31T08:20:01;11.20;99.90
15241;DHT22;7723;52.170;9.978;2023-10-31T08:22:29;11.20;99.90
15241;DHT22;7723;52.170;9.978;2023-10-31T08:24:58;11.20;99.90
15241;DHT22;7723;52.170;9.978;2023-10-31T08:27:25;11.20;99.90
15241;DHT22;7723;52.170;9.978;2023-10-31T08:29:52;11.20;99.90
15241;DHT22;7723;52.170;9.978;2023-10-31T08:32:19;11.20;99.90
15241;DHT22;7723;52.170;9.978;2023-10-31T08:34:48;11.20;99.90
15241;DHT22;7723;52.170;9.978;2023-10-31T08:37:15;11.20;99.90
15241;DHT22;7723;52.170;9.978;2023-10-31T08:39:42;11.00;99.90
15241;DHT22;7723;52.170;9.978;2023-10-31T08:42:11;10.90;99.90
15241;DHT22;7723;52.170;9.978;2023-10-31T08:44:40;10.70;99.90
15241;DHT22;7723;52.170;9.978;2023-10-31T08:47:07;10.70;99.90
15241;DHT22;7723;52.170;9.978;2023-10-31T08:49:34;10.60;99.90
15241;DHT22;7723;52.170;9.978;2023-10-31T08:52:01;10.60;99.90
15241;DHT22;7723;52.170;9.978;2023-10-31T08:54:29;10.60;99.90
15241;DHT22;7723;52.170;9.978;2023-10-31T08:56:57;10.60;99.90
15241;DHT22;7723;52.170;9.978;2023-10-31T08:59:25;10.60;99.90
15241;DHT22;7723;52.170;9.978;2023-10-31T09:01:52;10.50;99.90
15241;DHT22;7723;52.170;9.978;2023-10-31T09:04:19;10.50;99.90
15241;DHT22;7723;52.170;9.978;2023-10-31T09:06:46;10.60;99.90
15241;DHT22;7723;52.170;9.978;2023-10-31T09:09:13;11.10;99.90
15241;DHT22;7723;52.170;9.978;2023-10-31T09:11:41;11.50;99.90
15241;DHT22;7723;52.170;9.978;2023-10-31T09:14:08;12.10;99.90
15241;DHT22;7723;52.170;9.978;2023-10-31T09:16:36;12.60;99.90
15241;DHT22;7723;52.170;9.978;2023-10-31T09:19:04;13.00;99.90
15241;DHT22;7723;52.170;9.978;2023-10-31T09:21:31;13.30;99.90
15241;DHT22;7723;52.170;9.978;2023-10-31T09:23:58;13.30;99.90
15241;DHT22;7723;52.170;9.978;2023-10-31T09:26:25;13.30;99.90
15241;DHT22;7723;52.170;9.978;2023-10-31T09:28:53;13.00;99.90
15241;DHT22;7723;52.170;9.978;2023-10-31T09:31:20;12.50;99.90
15241;DHT22;7723;52.170;9.978;2023-10-31T09:33:48;12.20;99.90
15241;DHT22;7723;52.170;9.978;2023-10-31T09:36:15;12.10;99.90
15241;DHT22;7723;52.170;9.978;2023-10-31T09:38:42;12.10;99.90
15241;DHT22;7723;52.170;9.978;2023-10-31T09:41:09;12.00;99.90
15241;DHT22;7723;52.170;9.978;2023-10-31T09:43:37;11.90;99.90
15241;DHT22;7723;52.170;9.978;2023-10-31T09:46:05;11.90;99.90
15241;DHT22;7723;52.170;9.978;2023-10-31T09:48:33;11.90;99.90
15241;DHT22;7723;52.170;9.978;2023-10-31T09:51:02;11.90;99.90
15241;DHT22;7723;52.170;9.978;2023-10-31T09:53:30;12.00;99.90
15241;DHT22;7723;52.170;9.978;2023-10-31T09:55:59;12.00;99.90
15241;DHT22;7723;52.170;9.978;2023-10-31T09:58:26;12.10;99.90
15241;DHT22;7723;52.170;9.978;2023-10-31T10:00:53;12.10;99.90
15241;DHT22;7723;52.170;9.978;2023-10-31T10:03:20;12.10;99.90
15241;DHT22;7723;52.170;9.978;2023-10-31T10:05:49;12.10;99.90
15241;DHT22;7723;52.170;9.978;2023-10-31T10:08:18;12.10;99.90
15241;DHT22;7723;52.170;9.978;2023-10-31T10:10:46;12.20;99.90
15241;DHT22;7723;52.170;9.978;2023-10-31T10:13:13;12.20;99.90
15241;DHT22;7723;52.170;9.978;2023-10-31T10:15:46;12.20;99.90
15241;DHT22;7723;52.170;9.978;2023-10-31T10:18:24;12.30;99.90
15241;DHT22;7723;52.170;9.978;2023-10-31T10:20:56;12.20;99.90
15241;DHT22;7723;52.170;9.978;2023-10-31T10:23:26;12.20;99.90
15241;DHT22;7723;52.170;9.978;2023-10-31T10:25:54;12.10;99.90
15241;DHT22;7723;52.170;9.978;2023-10-31T10:28:22;11.90;99.90
15241;DHT22;7723;52.170;9.978;2023-10-31T10:30:50;12.00;99.90
15241;DHT22;7723;52.170;9.978;2023-10-31T10:33:18;12.00;99.90
15241;DHT22;7723;52.170;9.978;2023-10-31T10:35:45;12.00;99.90
15241;DHT22;7723;52.170;9.978;2023-10-31T10:38:14;12.00;99.90
15241;DHT22;7723;52.170;9.978;2023-10-31T10:40:44;12.10;99.90
15241;DHT22;7723;52.170;9.978;2023-10-31T10:43:16;12.10;99.90
15241;DHT22;7723;52.170;9.978;2023-10-31T10:45:47;12.10;99.90
15241;DHT22;7723;52.170;9.978;2023-10-31T10:48:17;12.10;99.90
15241;DHT22;7723;52.170;9.978;2023-10-31T10:50:50;12.20;99.90
15241;DHT22;7723;52.170;9.978;2023-10-31T10:53:22;12.30;99.90
15241;DHT22;7723;52.170;9.978;2023-10-31T10:55:56;12.30;99.90
15241;DHT22;7723;52.170;9.978;2023-10-31T10:58:27;12.30;99.90
15241;DHT22;7723;52.170;9.978;2023-10-31T11:00:56;12.40;99.90
15241;DHT22;7723;52.170;9.978;2023-10-31T11:03:27;12.50;99.90
15241;DHT22;7723;52.170;9.978;2023-10-31T11:05:55;12.70;99.90
15241;DHT22;7723;52.170;9.978;2023-10-31T11:08:24;12.80;99.90
15241;DHT22;7723;52.170;9.978;2023-10-31T11:10:54;12.80;99.90
15241;DHT22;7723;52.170;9.978;2023-10-31T11:13:23;12.80;99.90
15241;DHT22;7723;52.170;9.978;2023-10-31T11:15:55;12.90;99.90
15241;DHT22;7723;52.170;9.978;2023-10-31T11:18:23;13.00;99.90
15241;DHT22;7723;52.170;9.978;2023-10-31T11:20:52;12.90;99.90
15241;DHT22;7723;52.170;9.978;2023-10-31T11:23:19;12.80;99.90
15241;DHT22;7723;52.170;9.978;2023-10-31T11:25:49;12.60;99.90
15241;DHT22;7723;52.170;9.978;2023-10-31T11:28:20;12.50;99.90
15241;DHT22;7723;52.170;9.978;2023-10-31T11:30:49;12.30;99.90
15241;DHT22;7723;52.170;9.978;2023-10-31T11:33:19;12.30;99.90
15241;DHT22;7723;52.170;9.978;2023-10-31T11:35:50;12.30;99.90
15241;DHT22;7723;52.170;9.978;2023-10-31T11:38:30;12.20;99.90
15241;DHT22;7723;52.170;9.978;2023-10-31T11:41:00;12.40;99.90
15241;DHT22;7723;52.170;9.978;2023-10-31T11:43:52;12.50;99.90
15241;DHT22;7723;52.170;9.978;2023-10-31T11:46:20;12.70;99.90
15241;DHT22;7723;52.170;9.978;2023-10-31T11:48:49;12.70;79.50
15241;DHT22;7723;52.170;9.978;2023-10-31T11:51:17;12.80;90.00
15241;DHT22;7723;52.170;9.978;2023-10-31T11:53:48;12.70;66.50
15241;DHT22;7723;52.170;9.978;2023-10-31T11:56:16;12.60;99.70
15241;DHT22;7723;52.170;9.978;2023-10-31T11:58:44;12.50;99.90
15241;DHT22;7723;52.170;9.978;2023-10-31T12:01:21;12.50;99.90
15241;DHT22;7723;52.170;9.978;2023-10-31T12:03:48;12.50;99.90
15241;DHT22;7723;52.170;9.978;2023-10-31T12:06:15;12.50;99.90
15241;DHT22;7723;52.170;9.978;2023-10-31T12:08:43;12.40;99.90
15241;DHT22;7723;52.170;9.978;2023-10-31T12:11:11;12.40;99.90
15241;DHT22;7723;52.170;9.978;2023-10-31T12:13:40;12.30;99.90
15241;DHT22;7723;52.170;9.978;2023-10-31T12:16:10;12.30;99.90
15241;DHT22;7723;52.170;9.978;2023-10-31T12:18:38;12.30;99.90
15241;DHT22;7723;52.170;9.978;2023-10-31T12:21:06;12.40;99.90
15241;DHT22;7723;52.170;9.978;2023-10-31T12:23:34;12.30;99.90
15241;DHT22;7723;52.170;9.978;2023-10-31T12:26:01;12.40;99.90
15241;DHT22;7723;52.170;9.978;2023-10-31T12:28:29;12.30;99.90
15241;DHT22;7723;52.170;9.978;2023-10-31T12:30:58;12.30;99.90
15241;DHT22;7723;52.170;9.978;2023-10-31T12:33:27;12.40;99.90
15241;DHT22;7723;52.170;9.978;2023-10-31T12:35:59;12.40;99.90
15241;DHT22;7723;52.170;9.978;2023-10-31T12:38:27;12.40;99.90
15241;DHT22;7723;52.170;9.978;2023-10-31T12:40:55;12.40;99.90
15241;DHT22;7723;52.170;9.978;2023-10-31T12:43:23;12.40;99.90
15241;DHT22;7723;52.170;9.978;2023-10-31T12:45:51;12.50;99.90
15241;DHT22;7723;52.170;9.978;2023-10-31T12:48:24;12.50;99.90
15241;DHT22;7723;52.170;9.978;2023-10-31T12:51:06;12.40;99.90
15241;DHT22;7723;52.170;9.978;2023-10-31T12:53:33;12.50;99.90
15241;DHT22;7723;52.170;9.978;2023-10-31T12:56:00;12.40;99.90
15241;DHT22;7723;52.170;9.978;2023-10-31T12:58:28;12.40;99.90
15241;DHT22;7723;52.170;9.978;2023-10-31T13:00:55;12.40;99.90
15241;DHT22;7723;52.170;9.978;2023-10-31T13:03:22;12.60;99.90
15241;DHT22;7723;52.170;9.978;2023-10-31T13:05:49;12.70;99.90
15241;DHT22;7723;52.170;9.978;2023-10-31T13:08:22;12.80;99.90
15241;DHT22;7723;52.170;9.978;2023-10-31T13:10:50;12.80;99.90
15241;DHT22;7723;52.170;9.978;2023-10-31T13:13:18;12.90;99.90
15241;DHT22;7723;52.170;9.978;2023-10-31T13:15:45;13.00;99.90
15241;DHT22;7723;52.170;9.978;2023-10-31T13:18:12;12.90;99.90
15241;DHT22;7723;52.170;9.978;2023-10-31T13:20:41;13.10;99.90
15241;DHT22;7723;52.170;9.978;2023-10-31T13:23:08;13.20;99.90
15241;DHT22;7723;52.170;9.978;2023-10-31T13:25:37;13.20;86.10
15241;DHT22;7723;52.170;9.978;2023-10-31T13:28:04;13.10;1.00
15241;DHT22;7723;52.170;9.978;2023-10-31T13:30:33;13.00;10.50
15241;DHT22;7723;52.170;9.978;2023-10-31T13:33:00;13.10;26.80
15241;DHT22;7723;52.170;9.978;2023-10-31T13:35:27;13.00;1.00
15241;DHT22;7723;52.170;9.978;2023-10-31T13:37:54;12.90;28.10
15241;DHT22;7723;52.170;9.978;2023-10-31T13:40:21;12.90;51.40
15241;DHT22;7723;52.170;9.978;2023-10-31T13:42:50;12.90;99.90
15241;DHT22;7723;52.170;9.978;2023-10-31T13:45:17;12.90;99.90
15241;DHT22;7723;52.170;9.978;2023-10-31T13:47:44;12.80;98.10
15241;DHT22;7723;52.170;9.978;2023-10-31T13:50:13;12.80;99.90
15241;DHT22;7723;52.170;9.978;2023-10-31T13:52:40;13.00;51.10
15241;DHT22;7723;52.170;9.978;2023-10-31T13:55:08;13.00;99.90
15241;DHT22;7723;52.170;9.978;2023-10-31T13:57:35;13.00;5.30
15241;DHT22;7723;52.170;9.978;2023-10-31T14:00:05;12.90;7.30
15241;DHT22;7723;52.170;9.978;2023-10-31T14:02:34;12.80;1.00
15241;DHT22;7723;52.170;9.978;2023-10-31T14:05:01;12.70;52.00
15241;DHT22;7723;52.170;9.978;2023-10-31T14:07:29;12.70;99.90
15241;DHT22;7723;52.170;9.978;2023-10-31T14:09:56;12.70;99.90
15241;DHT22;7723;52.170;9.978;2023-10-31T14:12:24;12.70;99.90
15241;DHT22;7723;52.170;9.978;2023-10-31T14:14:51;12.60;99.90
15241;DHT22;7723;52.170;9.978;2023-10-31T14:17:20;12.60;99.90
15241;DHT22;7723;52.170;9.978;2023-10-31T14:19:48;12.50;99.90
15241;DHT22;7723;52.170;9.978;2023-10-31T14:22:15;12.40;99.90
15241;DHT22;7723;52.170;9.978;2023-10-31T14:24:42;12.40;99.90
15241;DHT22;7723;52.170;9.978;2023-10-31T14:27:09;12.40;99.90
15241;DHT22;7723;52.170;9.978;2023-10-31T14:29:36;12.40;99.90
15241;DHT22;7723;52.170;9.978;2023-10-31T14:32:07;12.40;99.90
15241;DHT22;7723;52.170;9.978;2023-10-31T14:34:35;12.40;99.90
15241;DHT22;7723;52.170;9.978;2023-10-31T14:37:03;12.40;99.90
15241;DHT22;7723;52.170;9.978;2023-10-31T14:39:31;12.40;99.90
15241;DHT22;7723;52.170;9.978;2023-10-31T14:42:00;12.40;99.90
15241;DHT22;7723;52.170;9.978;2023-10-31T14:44:27;12.40;99.90
15241;DHT22;7723;52.170;9.978;2023-10-31T14:46:54;12.40;99.90
15241;DHT22;7723;52.170;9.978;2023-10-31T14:49:22;12.40;99.90
15241;DHT22;7723;52.170;9.978;2023-10-31T14:51:50;12.30;99.90
15241;DHT22;7723;52.170;9.978;2023-10-31T14:54:17;12.30;99.90
15241;DHT22;7723;52.170;9.978;2023-10-31T14:56:46;12.30;99.90
15241;DHT22;7723;52.170;9.978;2023-10-31T14:59:13;12.30;99.90
15241;DHT22;7723;52.170;9.978;2023-10-31T15:01:41;12.30;99.90
15241;DHT22;7723;52.170;9.978;2023-10-31T15:04:08;12.20;99.90
15241;DHT22;7723;52.170;9.978;2023-10-31T15:06:36;12.20;99.90
15241;DHT22;7723;52.170;9.978;2023-10-31T15:09:05;12.20;99.90
15241;DHT22;7723;52.170;9.978;2023-10-31T15:11:32;12.20;99.90
15241;DHT22;7723;52.170;9.978;2023-10-31T15:13:59;12.20;99.90
15241;DHT22;7723;52.170;9.978;2023-10-31T15:16:26;12.10;99.90
15241;DHT22;7723;52.170;9.978;2023-10-31T15:18:57;12.00;99.90
15241;DHT22;7723;52.170;9.978;2023-10-31T15:21:24;11.90;99.90
15241;DHT22;7723;52.170;9.978;2023-10-31T15:23:51;11.90;99.90
15241;DHT22;7723;52.170;9.978;2023-10-31T15:26:20;11.80;99.90
15241;DHT22;7723;52.170;9.978;2023-10-31T15:28:50;11.80;99.90
15241;DHT22;7723;52.170;9.978;2023-10-31T15:31:17;11.70;99.90
15241;DHT22;7723;52.170;9.978;2023-10-31T15:33:45;11.70;99.90
15241;DHT22;7723;52.170;9.978;2023-10-31T15:36:12;11.70;99.90
15241;DHT22;7723;52.170;9.978;2023-10-31T15:38:40;11.80;99.90
15241;DHT22;7723;52.170;9.978;2023-10-31T15:41:07;11.80;99.90
15241;DHT22;7723;52.170;9.978;2023-10-31T15:43:39;11.80;99.90
15241;DHT22;7723;52.170;9.978;2023-10-31T15:46:06;11.80;99.90
15241;DHT22;7723;52.170;9.978;2023-10-31T15:48:33;11.80;99.90
15241;DHT22;7723;52.170;9.978;2023-10-31T15:51:00;11.80;99.90